Metar z połowy godziny Komunikat METAR ze strony awiacja.imgw.pl Metar G30 EPMI METAR EPMI 170900Z 15007KT 110V180 CAVOK 25/14 Q1017 RMK 253 049 0/0=